Time;durP1;ratioP1;P1;durP2;ratioP2;P2;SDS_P1;SDS_P2;PMS_P1;PMS_P2;Temp;Humidity;BMP_temperature;BMP_pressure;BME280_temperature;BME280_humidity;BME280_pressure;Samples;Min_cycle;Max_cycle;Signal;HPM_P1;HPM_P2
2022/12/22 03:30:39;;;;;;;10.55;6.60;;;;;;;7.78;91.12;99210.59;10411951;28;20121;-78
2022/12/22 03:35:45;;;;;;;8.20;7.32;;;;;;;7.77;91.30;99201.75;10431626;28;20121;-77
2022/12/22 03:40:48;;;;;;;7.18;6.47;;;;;;;7.75;90.98;99200.19;10449232;28;20064;-78
2022/12/22 03:51:16;;;;;;;9.07;7.72;;;;;;;7.77;91.19;99191.06;10450567;28;20045;-79
2022/12/22 03:56:18;;;;;;;10.27;7.15;;;;;;;7.81;91.31;99192.47;10452730;28;20504;-78
2022/12/22 04:01:21;;;;;;;10.27;7.50;;;;;;;7.84;91.13;99184.16;10453070;28;20068;-77
2022/12/22 04:06:26;;;;;;;7.80;7.00;;;;;;;7.82;90.86;99171.94;10460576;28;20120;-78
2022/12/22 04:16:49;;;;;;;6.82;5.13;;;;;;;7.78;90.65;99152.63;10460696;28;20098;-78
2022/12/22 04:21:54;;;;;;;6.50;4.55;;;;;;;7.81;91.05;99143.50;10472648;28;20051;-76
2022/12/22 04:26:57;;;;;;;9.35;4.95;;;;;;;7.79;90.63;99140.97;10471321;28;20094;-77
2022/12/22 04:31:59;;;;;;;6.70;5.85;;;;;;;7.76;90.56;99143.06;10460150;28;20053;-78
2022/12/22 04:37:04;;;;;;;6.88;5.70;;;;;;;7.81;90.82;99138.16;10459213;28;20044;-78
2022/12/22 04:42:19;;;;;;;9.63;4.93;;;;;;;7.79;90.78;99129.41;10458550;28;20476;-77
2022/12/22 04:47:21;;;;;;;6.80;4.47;;;;;;;7.71;90.59;99122.94;10459026;28;20048;-77
2022/12/22 04:52:26;;;;;;;5.30;4.75;;;;;;;7.73;90.29;99115.66;10458377;28;20072;-78
2022/12/22 04:57:29;;;;;;;7.50;6.78;;;;;;;7.69;90.65;99102.69;10458022;28;20072;-77
2022/12/22 05:02:34;;;;;;;9.30;8.35;;;;;;;7.73;90.68;99107.63;10457791;28;20453;-78
2022/12/22 05:07:39;;;;;;;13.88;8.32;;;;;;;7.78;90.66;99093.00;10457833;28;20071;-78
2022/12/22 05:12:56;;;;;;;7.47;5.72;;;;;;;7.77;90.73;99084.13;10457042;28;20144;-78
2022/12/22 05:18:00;;;;;;;8.27;6.68;;;;;;;7.69;90.57;99084.81;10457654;28;20076;-78
2022/12/22 05:23:04;;;;;;;11.15;6.45;;;;;;;7.69;90.85;99081.31;10457328;28;20045;-77
2022/12/22 05:28:07;;;;;;;13.73;8.05;;;;;;;7.65;90.85;99080.75;10457154;28;20120;-78
2022/12/22 05:33:10;;;;;;;14.13;9.45;;;;;;;7.63;90.84;99080.03;10456798;28;20069;-77
2022/12/22 05:38:14;;;;;;;20.67;12.90;;;;;;;7.53;90.43;99079.16;10457069;28;20065;-78
2022/12/22 05:43:16;;;;;;;26.25;14.80;;;;;;;7.44;90.49;99072.81;10457014;28;20064;-78
2022/12/22 05:48:19;;;;;;;28.35;15.52;;;;;;;7.34;90.45;99071.91;10457286;28;20505;-78
2022/12/22 05:53:32;;;;;;;26.42;16.13;;;;;;;7.19;90.12;99068.78;10457858;28;20037;-80
2022/12/22 05:58:38;;;;;;;31.33;16.77;;;;;;;7.02;90.18;99064.06;10461578;28;20072;-80
2022/12/22 06:03:41;;;;;;;34.55;17.63;;;;;;;7.00;90.17;99063.38;10452134;28;20150;-81
2022/12/22 06:08:45;;;;;;;38.95;18.52;;;;;;;6.94;90.19;99051.41;10450215;28;20044;-80
2022/12/22 06:13:48;;;;;;;37.92;19.30;;;;;;;6.92;90.47;99045.34;10449995;28;20048;-79
2022/12/22 06:18:50;;;;;;;36.00;18.05;;;;;;;6.89;90.12;99042.09;10455887;28;20123;-79
2022/12/22 06:23:55;;;;;;;33.60;17.88;;;;;;;6.86;90.68;99045.84;10454802;28;20071;-80
2022/12/22 06:28:57;;;;;;;35.25;17.58;;;;;;;6.86;90.40;99040.50;10455719;28;20045;-79
2022/12/22 06:34:00;;;;;;;;;;;;;;;6.85;90.46;99036.13;10455386;28;20053;-79
2022/12/22 06:39:04;;;;;;;31.10;15.85;;;;;;;6.86;90.64;99037.84;10455234;28;20391;-79
2022/12/22 06:44:07;;;;;;;40.15;17.45;;;;;;;6.83;90.50;99038.94;10433605;28;20041;-79
2022/12/22 06:49:10;;;;;;;40.13;18.02;;;;;;;6.89;90.67;99037.59;10455394;28;20439;-80
2022/12/22 06:54:14;;;;;;;33.20;16.70;;;;;;;6.92;90.61;99042.66;10454413;28;20037;-79
2022/12/22 06:59:23;;;;;;;33.92;16.85;;;;;;;6.94;90.98;99045.19;10456390;28;20052;-79
2022/12/22 07:04:28;;;;;;;35.03;16.15;;;;;;;6.98;90.87;99050.13;10458921;28;20501;-81
2022/12/22 07:09:32;;;;;;;35.92;16.98;;;;;;;7.01;90.85;99052.53;10462805;28;20037;-82
2022/12/22 07:14:35;;;;;;;44.10;18.30;;;;;;;7.03;90.97;99049.75;10466694;28;20064;-81
2022/12/22 07:19:38;;;;;;;34.42;17.85;;;;;;;6.98;90.95;99049.28;10463865;28;20057;-80
2022/12/22 07:24:42;;;;;;;41.53;19.27;;;;;;;6.98;91.20;99052.81;10463081;28;20440;-81
2022/12/22 07:29:45;;;;;;;66.20;32.10;;;;;;;7.03;91.02;99053.25;10462674;28;20091;-81
2022/12/22 07:34:47;;;;;;;56.55;27.23;;;;;;;7.02;91.17;99050.69;10463633;28;20037;-81
2022/12/22 07:39:51;;;;;;;45.75;20.70;;;;;;;6.99;91.20;99058.97;10471353;28;20052;-81
2022/12/22 07:44:54;;;;;;;38.15;19.92;;;;;;;6.97;91.36;99056.47;10460276;28;20052;-81
2022/12/22 07:55:19;;;;;;;45.75;21.58;;;;;;;7.09;91.47;99067.88;10470867;28;20045;-81
2022/12/22 08:00:23;;;;;;;42.55;21.30;;;;;;;7.13;91.43;99074.66;10470209;28;20102;-81
2022/12/22 08:05:26;;;;;;;46.17;21.60;;;;;;;7.15;91.64;99077.19;10459670;28;20037;-81
2022/12/22 08:10:31;;;;;;;16.88;6.55;;;;;;;7.19;91.66;99079.47;10469106;28;20440;-81
2022/12/22 08:15:34;;;;;;;28.02;13.30;;;;;;;7.34;91.77;99087.94;10457900;28;20063;-81
2022/12/22 08:20:37;;;;;;;15.52;7.90;;;;;;;7.42;91.49;99087.28;10454261;28;20041;-81
2022/12/22 08:25:41;;;;;;;15.70;8.10;;;;;;;7.44;91.17;99096.84;10447597;28;20096;-80
2022/12/22 08:30:45;;;;;;;12.35;8.27;;;;;;;7.58;91.81;99087.59;10465656;28;20141;-80
2022/12/22 08:35:47;;;;;;;11.32;7.55;;;;;;;7.49;91.57;99096.44;10430223;28;20041;-79
2022/12/22 08:40:54;;;;;;;41.97;10.18;;;;;;;7.06;90.74;99113.56;10465863;28;20087;-79
2022/12/22 08:45:57;;;;;;;13.43;10.07;;;;;;;7.17;91.50;99113.47;10467343;28;20076;-82
2022/12/22 08:51:00;;;;;;;16.38;11.50;;;;;;;7.24;91.50;99109.28;10463944;28;20127;-82
2022/12/22 08:56:04;;;;;;;16.58;10.95;;;;;;;7.22;91.17;99121.09;10467958;28;20405;-81
2022/12/22 09:01:07;;;;;;;18.52;11.63;;;;;;;7.13;91.42;99129.88;10466557;28;20076;-81
2022/12/22 09:06:10;;;;;;;46.67;12.10;;;;;;;6.92;91.15;99137.94;10467028;28;20048;-81
2022/12/22 09:11:15;;;;;;;25.45;12.60;;;;;;;7.08;91.43;99146.31;10475289;28;20045;-77
2022/12/22 09:16:19;;;;;;;28.55;15.35;;;;;;;7.19;91.59;99151.56;10485569;28;20045;-78
2022/12/22 09:21:23;;;;;;;21.90;13.55;;;;;;;7.21;91.92;99149.63;10474799;28;20053;-81
2022/12/22 09:26:29;;;;;;;26.50;15.27;;;;;;;7.30;92.10;99157.81;10470092;28;20033;-80
2022/12/22 09:31:32;;;;;;;21.30;13.45;;;;;;;7.28;91.90;99155.28;10475961;28;20053;-81
2022/12/22 09:36:35;;;;;;;25.02;14.57;;;;;;;7.49;91.94;99160.56;10488466;28;20048;-80
2022/12/22 09:41:46;;;;;;;39.80;13.80;;;;;;;7.48;91.54;99167.72;10475153;28;20485;-80
2022/12/22 09:46:49;;;;;;;20.58;13.45;;;;;;;7.18;91.64;99178.41;10470189;28;20041;-80
2022/12/22 09:51:56;;;;;;;23.30;13.55;;;;;;;7.22;92.44;99186.03;10469397;28;20048;-80
2022/12/22 09:57:01;;;;;;;20.42;12.27;;;;;;;7.27;93.19;99193.66;10476778;28;20044;-80
2022/12/22 10:02:16;;;;;;;24.83;14.35;;;;;;;7.59;93.10;99203.34;10456790;28;20064;-80
2022/12/22 10:07:26;;;;;;;22.15;12.73;;;;;;;7.44;93.46;99209.06;10485060;28;20049;-80
2022/12/22 10:12:30;;;;;;;23.25;11.18;;;;;;;7.53;95.53;99210.09;10485370;28;20055;-80
2022/12/22 10:17:34;;;;;;;30.63;12.88;;;;;;;7.50;94.90;99207.69;10480624;28;20033;-79
2022/12/22 10:22:49;;;;;;;31.02;13.90;;;;;;;7.84;93.97;99215.41;10621324;27;20953;-80
2022/12/22 10:27:54;;;;;;;28.90;12.20;;;;;;;7.82;94.72;99222.75;10592257;28;20035;-80
2022/12/22 10:33:06;;;;;;;24.45;11.32;;;;;;;8.08;93.76;99228.44;10593459;28;20065;-79
2022/12/22 10:38:27;;;;;;;26.40;12.83;;;;;;;8.26;93.08;99232.16;10608534;28;20055;-79
2022/12/22 10:43:31;;;;;;;25.67;12.60;;;;;;;8.15;92.92;99232.28;10599576;28;20436;-79
2022/12/22 10:48:36;;;;;;;24.63;12.88;;;;;;;8.16;92.52;99241.97;10602143;28;20054;-79
2022/12/22 10:53:45;;;;;;;23.33;10.88;;;;;;;8.21;92.82;99268.34;10591497;28;20071;-80
2022/12/22 10:58:49;;;;;;;20.90;10.27;;;;;;;8.05;92.61;99269.66;10616338;27;20389;-79
2022/12/22 11:03:52;;;;;;;18.33;10.05;;;;;;;7.69;94.57;99284.44;10607419;28;20039;-79
2022/12/22 11:08:56;;;;;;;19.88;10.35;;;;;;;7.59;94.06;99289.72;10605265;27;20050;-79
2022/12/22 11:14:30;;;;;;;25.48;12.02;;;;;;;7.90;93.48;99293.28;10615416;28;20044;-79
2022/12/22 11:19:45;;;;;;;21.92;10.27;;;;;;;8.12;92.30;99307.44;10611928;27;20051;-80
2022/12/22 11:25:02;;;;;;;20.13;11.63;;;;;;;8.14;92.52;99306.28;10581422;28;20051;-81
2022/12/22 11:30:10;;;;;;;20.50;11.90;;;;;;;7.94;93.25;99301.84;10588441;28;20075;-80
2022/12/22 11:35:19;;;;;;;19.88;11.10;;;;;;;7.86;92.92;99315.06;10554522;28;20056;-81
2022/12/22 11:40:32;;;;;;;23.85;12.23;;;;;;;8.24;93.15;99319.72;10582662;28;20048;-79
2022/12/22 11:45:51;;;;;;;18.48;10.57;;;;;;;8.32;92.59;99311.03;10567392;28;20051;-79
2022/12/22 11:50:56;;;;;;;22.98;12.82;;;;;;;8.77;90.72;99319.44;10576473;28;20042;-79
2022/12/22 11:56:22;;;;;;;20.58;11.38;;;;;;;8.67;90.19;99315.09;10592762;28;20048;-80
2022/12/22 12:01:42;;;;;;;19.73;10.57;;;;;;;8.40;88.84;99325.41;10578615;28;20043;-80
2022/12/22 12:07:03;;;;;;;20.08;10.80;;;;;;;8.86;89.31;99330.31;10599817;28;20059;-79
2022/12/22 12:12:16;;;;;;;19.77;11.20;;;;;;;8.67;86.11;99328.47;10579631;28;20044;-80
2022/12/22 12:17:34;;;;;;;18.95;10.70;;;;;;;8.75;85.18;99328.59;10586602;28;20048;-79
2022/12/22 12:22:48;;;;;;;18.33;10.93;;;;;;;9.60;81.01;99352.06;10587962;28;20040;-79
2022/12/22 12:28:07;;;;;;;17.15;10.32;;;;;;;8.70;83.78;99376.41;10566590;28;20404;-80
2022/12/22 12:33:16;;;;;;;18.58;12.02;;;;;;;8.28;83.07;99376.47;10570565;28;20040;-79
2022/12/22 12:38:26;;;;;;;17.55;10.75;;;;;;;8.56;83.55;99391.84;10581131;28;20043;-79
2022/12/22 12:43:53;;;;;;;20.75;10.75;;;;;;;8.14;83.51;99404.44;10575760;28;20040;-79
2022/12/22 12:48:56;;;;;;;20.27;11.52;;;;;;;8.08;83.71;99405.81;10554308;28;20043;-80
2022/12/22 12:54:41;;;;;;;20.27;11.35;;;;;;;7.59;83.86;99403.78;10566275;28;20056;-79
2022/12/22 12:59:50;;;;;;;19.92;11.48;;;;;;;7.45;84.72;99410.28;10557534;28;20044;-79
2022/12/22 13:05:32;;;;;;;19.40;10.90;;;;;;;7.66;83.88;99415.66;10570483;28;20047;-79
2022/12/22 13:10:37;;;;;;;22.80;11.95;;;;;;;7.78;83.07;99411.09;10582768;28;20325;-80
2022/12/22 13:15:43;;;;;;;22.58;11.57;;;;;;;8.16;83.53;99407.81;10606699;27;20050;-78
2022/12/22 13:20:55;;;;;;;21.85;11.48;;;;;;;8.71;79.48;99412.88;10617503;27;20039;-79
2022/12/22 13:26:21;;;;;;;19.83;10.80;;;;;;;8.14;80.31;99410.63;10601484;27;20107;-78
2022/12/22 13:31:33;;;;;;;18.60;10.48;;;;;;;8.63;80.49;99418.06;10623945;27;20031;-80
2022/12/22 13:36:36;;;;;;;15.65;9.05;;;;;;;8.58;75.73;99413.97;10603039;28;20038;-78
2022/12/22 13:41:41;;;;;;;17.05;8.60;;;;;;;9.39;74.53;99421.91;10633134;27;20103;-78
2022/12/22 13:46:46;;;;;;;14.82;9.48;;;;;;;9.37;75.17;99425.69;10604781;27;20048;-79
2022/12/22 13:51:49;;;;;;;12.32;6.93;;;;;;;8.91;74.26;99438.72;10594727;27;20042;-78
2022/12/22 13:56:55;;;;;;;15.43;8.93;;;;;;;8.73;74.42;99437.69;10594152;27;20044;-80
2022/12/22 14:02:01;;;;;;;15.73;9.60;;;;;;;8.97;74.90;99445.41;10619284;27;20054;-78
2022/12/22 14:07:10;;;;;;;15.27;9.50;;;;;;;9.10;75.51;99439.75;10578630;28;20130;-79
2022/12/22 14:12:16;;;;;;;15.68;9.68;;;;;;;9.04;74.88;99451.88;10578199;28;20043;-79
2022/12/22 14:17:23;;;;;;;13.70;9.35;;;;;;;8.25;74.91;99449.81;10578783;28;20040;-78
2022/12/22 14:22:29;;;;;;;16.20;8.85;;;;;;;7.89;75.23;99460.00;10604307;28;20036;-79
2022/12/22 14:27:35;;;;;;;16.15;9.85;;;;;;;7.90;75.95;99467.06;10639263;28;20046;-79
2022/12/22 14:32:41;;;;;;;13.65;9.05;;;;;;;7.51;77.08;99479.25;10630089;28;20054;-79
2022/12/22 14:37:44;;;;;;;12.15;8.63;;;;;;;7.36;77.69;99486.72;10634583;28;20069;-79
2022/12/22 14:42:47;;;;;;;16.45;9.75;;;;;;;7.50;78.77;99481.06;10614059;28;20044;-80
2022/12/22 14:47:53;;;;;;;15.77;9.10;;;;;;;7.58;78.88;99496.50;10637292;28;20058;-78
2022/12/22 14:52:58;;;;;;;19.27;11.32;;;;;;;7.24;80.18;99503.72;10627122;28;20071;-78
2022/12/22 14:58:05;;;;;;;23.10;11.50;;;;;;;7.18;80.06;99499.72;10629996;28;20059;-79
2022/12/22 15:03:30;;;;;;;19.10;11.68;;;;;;;7.09;80.76;99503.16;10611912;28;20043;-77
2022/12/22 15:08:37;;;;;;;18.58;11.73;;;;;;;6.92;81.26;99498.34;10621951;27;20055;-79
2022/12/22 15:13:41;;;;;;;21.70;11.82;;;;;;;6.82;81.01;99493.69;10611623;28;20044;-78
2022/12/22 15:18:46;;;;;;;19.13;11.63;;;;;;;6.84;81.22;99486.41;10619158;27;20062;-79
2022/12/22 15:23:49;;;;;;;25.45;10.98;;;;;;;7.02;81.05;99504.63;10619452;27;20051;-77
2022/12/22 15:28:52;;;;;;;20.55;11.65;;;;;;;7.00;81.71;99504.75;10620008;27;20039;-79
2022/12/22 15:33:59;;;;;;;24.42;12.27;;;;;;;6.68;82.48;99512.59;10623101;27;20082;-78
2022/12/22 15:39:02;;;;;;;20.17;12.35;;;;;;;6.74;82.46;99508.59;10645038;27;20047;-78
2022/12/22 15:44:04;;;;;;;25.35;11.07;;;;;;;6.76;82.38;99512.84;10620697;27;20058;-79
2022/12/22 15:49:15;;;;;;;20.98;11.30;;;;;;;6.63;83.18;99518.28;10631891;27;20039;-78
2022/12/22 15:54:18;;;;;;;28.40;12.10;;;;;;;6.62;82.82;99521.09;10640081;27;20039;-78
2022/12/22 15:59:24;;;;;;;25.27;12.65;;;;;;;6.61;82.27;99519.41;10617585;27;20055;-76
2022/12/22 16:04:29;;;;;;;23.40;11.10;;;;;;;6.61;81.86;99524.75;10639687;27;20039;-75
2022/12/22 16:09:38;;;;;;;20.77;9.30;;;;;;;6.57;81.16;99525.94;10656029;27;20047;-73
2022/12/22 16:14:43;;;;;;;21.65;10.93;;;;;;;6.63;80.93;99512.13;10633736;27;20043;-77
2022/12/22 16:19:53;;;;;;;21.40;12.13;;;;;;;6.80;80.58;99505.44;10641632;27;20035;-78
2022/12/22 16:24:56;;;;;;;21.83;11.18;;;;;;;6.75;81.11;99495.16;10624555;27;20053;-79
2022/12/22 16:29:59;;;;;;;26.73;12.48;;;;;;;6.78;81.21;99491.38;10623317;27;20043;-80
2022/12/22 16:35:15;;;;;;;30.58;14.57;;;;;;;6.73;82.41;99483.75;10641286;27;20532;-78
2022/12/22 16:40:18;;;;;;;27.85;15.40;;;;;;;6.64;83.10;99481.81;10635170;27;20484;-79
2022/12/22 16:45:24;;;;;;;40.15;20.45;;;;;;;6.53;83.54;99488.00;10606884;28;20048;-80
2022/12/22 16:50:32;;;;;;;36.70;18.63;;;;;;;6.52;83.90;99472.94;10619883;27;20043;-79
2022/12/22 16:55:34;;;;;;;29.15;16.50;;;;;;;6.62;83.69;99473.06;10614784;27;20048;-78
2022/12/22 17:00:39;;;;;;;30.02;16.05;;;;;;;6.68;83.59;99455.72;10636954;27;20043;-79
2022/12/22 17:05:47;;;;;;;32.22;17.52;;;;;;;6.67;83.08;99451.38;10628444;27;20043;-80
2022/12/22 17:10:51;;;;;;;35.88;18.02;;;;;;;6.74;82.85;99439.22;10583233;28;20043;-78
2022/12/22 17:15:54;;;;;;;37.08;19.50;;;;;;;6.78;82.78;99440.69;10580845;28;20179;-77
2022/12/22 17:21:00;;;;;;;38.72;18.83;;;;;;;6.76;82.24;99434.59;10583654;27;20043;-78
2022/12/22 17:26:07;;;;;;;31.60;20.35;;;;;;;6.78;82.48;99430.84;10595370;27;20044;-78
2022/12/22 17:31:15;;;;;;;29.95;18.20;;;;;;;6.73;81.98;99427.69;10597816;27;20146;-79
2022/12/22 17:36:28;;;;;;;33.47;17.85;;;;;;;6.90;81.61;99422.84;10593041;27;20043;-79
2022/12/22 17:41:31;;;;;;;36.20;18.80;;;;;;;6.78;82.07;99414.84;10599191;27;20106;-79
2022/12/22 17:46:34;;;;;;;31.25;17.58;;;;;;;6.89;81.79;99407.81;10598240;27;20051;-78
2022/12/22 17:51:39;;;;;;;30.95;17.90;;;;;;;6.95;81.87;99418.81;10602040;27;20066;-78
2022/12/22 17:56:42;;;;;;;27.02;15.93;;;;;;;6.88;80.89;99422.97;10599828;27;20479;-78
2022/12/22 18:01:45;;;;;;;31.45;18.17;;;;;;;6.99;80.95;99412.28;10577407;28;20075;-78
2022/12/22 18:06:49;;;;;;;31.80;17.40;;;;;;;7.02;81.00;99414.69;10577808;28;20043;-78
2022/12/22 18:11:53;;;;;;;29.83;16.70;;;;;;;7.01;80.93;99398.78;10594235;27;20593;-78
2022/12/22 18:16:56;;;;;;;35.10;18.42;;;;;;;7.16;80.76;99405.56;10601123;27;20042;-78
2022/12/22 18:22:00;;;;;;;28.38;17.48;;;;;;;7.09;80.95;99398.16;10603096;28;20609;-78
2022/12/22 18:27:03;;;;;;;31.75;18.92;;;;;;;7.05;80.96;99394.91;10600514;28;20415;-79
2022/12/22 18:32:08;;;;;;;30.65;17.13;;;;;;;6.85;80.69;99386.66;10600932;28;20132;-78
2022/12/22 18:37:16;;;;;;;28.52;15.93;;;;;;;6.93;80.66;99382.56;10601226;28;20043;-78
2022/12/22 18:42:21;;;;;;;33.65;17.25;;;;;;;6.90;80.98;99370.31;10612306;27;20078;-78
2022/12/22 18:47:24;;;;;;;27.75;17.40;;;;;;;6.80;82.35;99359.50;10586956;28;20074;-78
2022/12/22 18:52:29;;;;;;;;;;;;;;;6.56;83.75;99353.50;10585918;28;20043;-79
2022/12/22 18:57:32;;;;;;;28.60;17.40;;;;;;;6.55;84.86;99351.78;10603322;27;19924;-78
2022/12/22 19:02:35;;;;;;;;;;;;;;;6.47;85.70;99343.53;10596058;27;20035;-78
2022/12/22 19:07:39;;;;;;;35.17;18.85;;;;;;;6.40;86.51;99333.38;10596579;27;20272;-79
2022/12/22 19:12:42;;;;;;;39.95;20.48;;;;;;;6.37;86.77;99328.28;10575585;27;20084;-80
2022/12/22 19:17:45;;;;;;;32.83;17.95;;;;;;;6.34;86.90;99315.19;10608890;27;20403;-79
2022/12/22 19:22:50;;;;;;;34.70;18.15;;;;;;;6.36;87.28;99315.06;10608367;27;20501;-79
2022/12/22 19:27:56;;;;;;;41.33;20.65;;;;;;;6.51;86.80;99307.66;10606664;27;20047;-78
2022/12/22 19:33:01;;;;;;;36.22;17.98;;;;;;;6.31;87.25;99310.13;10584427;28;20488;-78
2022/12/22 19:38:18;;;;;;;35.10;20.73;;;;;;;6.41;87.85;99291.53;10584348;28;20044;-79
2022/12/22 19:43:21;;;;;;;38.47;19.67;;;;;;;6.51;87.52;99280.97;10596012;27;20110;-79
2022/12/22 19:48:26;;;;;;;37.60;20.45;;;;;;;6.54;88.01;99283.38;10613730;27;20419;-80
2022/12/22 19:53:30;;;;;;;42.03;22.98;;;;;;;6.55;88.20;99267.25;10618967;27;20032;-80
2022/12/22 19:58:39;;;;;;;38.72;21.30;;;;;;;6.58;88.51;99266.13;10605116;27;20035;-80
2022/12/22 20:03:42;;;;;;;54.05;24.60;;;;;;;6.58;88.46;99261.69;10618214;27;20443;-81
2022/12/22 20:08:46;;;;;;;54.13;24.35;;;;;;;6.63;88.63;99250.59;10627798;27;20638;-80
2022/12/22 20:13:49;;;;;;;44.60;22.90;;;;;;;6.66;88.94;99247.69;10597950;27;20063;-79
2022/12/22 20:18:52;;;;;;;44.20;22.35;;;;;;;6.68;88.83;99237.72;10630300;27;20069;-81
2022/12/22 20:23:59;;;;;;;36.88;18.63;;;;;;;6.68;88.71;99242.22;10614185;27;20074;-78
2022/12/22 20:29:02;;;;;;;44.95;20.88;;;;;;;6.70;89.06;99234.94;10625144;27;20114;-78
2022/12/22 20:34:05;;;;;;;46.97;22.13;;;;;;;6.66;89.24;99225.50;10614865;27;20462;-80
2022/12/22 20:39:15;;;;;;;39.38;20.95;;;;;;;6.68;89.33;99219.06;10589139;28;20047;-80
2022/12/22 20:44:18;;;;;;;43.75;20.48;;;;;;;6.61;89.74;99212.56;10589406;28;20085;-79
2022/12/22 20:49:20;;;;;;;43.03;19.77;;;;;;;6.68;89.76;99200.38;10587283;28;20828;-80
2022/12/22 20:54:24;;;;;;;40.88;19.30;;;;;;;6.78;89.89;99192.47;10614419;27;20036;-79
2022/12/22 20:59:28;;;;;;;34.70;18.25;;;;;;;6.80;89.99;99186.00;10617620;27;20036;-80
2022/12/22 21:04:31;;;;;;;30.90;16.00;;;;;;;6.83;90.43;99183.09;10627866;27;20042;-81
2022/12/22 21:09:35;;;;;;;24.75;11.30;;;;;;;6.82;90.86;99183.19;10652640;27;20047;-79
2022/12/22 21:14:38;;;;;;;20.42;11.13;;;;;;;6.99;91.15;99176.47;10637874;27;20057;-80
2022/12/22 21:19:41;;;;;;;17.33;10.40;;;;;;;7.06;91.33;99194.50;10612006;27;20061;-82
2022/12/22 21:24:45;;;;;;;19.50;10.50;;;;;;;7.16;91.32;99173.22;10609308;27;20036;-79
2022/12/22 21:29:48;;;;;;;14.60;9.20;;;;;;;7.16;91.57;99167.00;10612773;27;20039;-81
2022/12/22 21:34:51;;;;;;;16.17;9.10;;;;;;;7.14;91.98;99159.13;10626729;27;20039;-81
2022/12/22 21:39:55;;;;;;;14.57;8.35;;;;;;;7.25;91.73;99151.03;10583302;28;20097;-81
2022/12/22 21:44:58;;;;;;;19.00;8.85;;;;;;;7.35;91.70;99152.91;10584891;28;20071;-82
2022/12/22 21:50:01;;;;;;;13.50;8.00;;;;;;;7.25;92.28;99134.16;10584086;28;20047;-80
2022/12/22 21:55:06;;;;;;;10.48;6.88;;;;;;;7.39;92.65;99149.00;10566702;28;20051;-81
2022/12/22 22:00:12;;;;;;;9.63;5.60;;;;;;;7.34;92.55;99141.38;10583826;28;20035;-80
2022/12/22 22:05:23;;;;;;;10.10;6.20;;;;;;;7.46;92.37;99134.97;10584677;28;20032;-81
2022/12/22 22:10:29;;;;;;;10.27;6.25;;;;;;;7.37;93.00;99129.56;10570123;27;20047;-80
2022/12/22 22:15:32;;;;;;;13.57;6.80;;;;;;;7.32;94.03;99111.28;10583019;28;20480;-80
2022/12/22 22:20:35;;;;;;;10.57;6.95;;;;;;;7.32;94.50;99116.59;10582702;28;20052;-81
2022/12/22 22:25:39;;;;;;;9.13;5.80;;;;;;;7.47;93.89;99115.28;10582705;28;20035;-81
2022/12/22 22:30:42;;;;;;;12.25;6.35;;;;;;;7.47;93.42;99109.09;10582438;28;20039;-81
2022/12/22 22:35:45;;;;;;;13.02;6.72;;;;;;;7.59;93.57;99108.00;10586231;28;20090;-80
2022/12/22 22:40:50;;;;;;;12.55;6.45;;;;;;;7.59;94.11;99105.31;10591478;28;20051;-80
2022/12/22 22:45:52;;;;;;;7.47;5.88;;;;;;;7.72;93.94;99099.72;10598097;28;20047;-81
2022/12/22 22:50:55;;;;;;;7.43;5.35;;;;;;;7.71;93.79;99092.72;10599506;28;20569;-80
2022/12/22 22:56:02;;;;;;;6.15;4.43;;;;;;;7.41;95.96;99104.28;10632750;28;20058;-82
2022/12/22 23:01:06;;;;;;;9.32;5.80;;;;;;;7.35;96.91;99107.47;10639827;28;20048;-80
2022/12/22 23:06:12;;;;;;;6.85;5.15;;;;;;;7.63;95.73;99093.38;10601450;28;20389;-83
2022/12/22 23:11:16;;;;;;;9.38;6.20;;;;;;;7.53;96.48;99092.50;10592188;28;20591;-82
2022/12/22 23:16:20;;;;;;;10.80;5.53;;;;;;;7.51;96.59;99094.47;10599695;28;20066;-82
2022/12/22 23:21:23;;;;;;;8.85;6.10;;;;;;;7.69;96.00;99084.81;10607167;28;20039;-83
2022/12/22 23:26:28;;;;;;;11.05;6.00;;;;;;;7.69;96.47;99086.66;10594449;28;20146;-82
2022/12/22 23:31:31;;;;;;;8.10;6.05;;;;;;;7.79;95.70;99083.97;10603846;28;20037;-80
2022/12/22 23:36:34;;;;;;;5.78;4.72;;;;;;;7.61;96.78;99084.66;10610852;27;20065;-80
2022/12/22 23:41:38;;;;;;;9.77;6.90;;;;;;;7.56;97.87;99088.72;10612074;27;20487;-81
2022/12/22 23:46:41;;;;;;;11.18;7.10;;;;;;;7.87;95.58;99092.16;10623039;27;20070;-82
2022/12/22 23:51:44;;;;;;;8.60;5.85;;;;;;;7.66;96.88;99092.28;10599264;28;20043;-81
2022/12/22 23:56:48;;;;;;;12.48;8.55;;;;;;;7.92;96.73;99085.41;10600603;28;20044;-79
